sensor_id;sensor_type;location;lat;lon;timestamp;P1;durP1;ratioP1;P2;durP2;ratioP2
20621;SDS011;10470;42.670;23.354;2022-08-21T00:02:16;15.47;;;9.97;;
20621;SDS011;10470;42.670;23.354;2022-08-21T00:04:44;14.67;;;9.77;;
20621;SDS011;10470;42.670;23.354;2022-08-21T00:07:10;18.07;;;10.27;;
20621;SDS011;10470;42.670;23.354;2022-08-21T00:09:36;17.50;;;9.57;;
20621;SDS011;10470;42.670;23.354;2022-08-21T00:12:02;16.27;;;9.83;;
20621;SDS011;10470;42.670;23.354;2022-08-21T00:14:28;14.37;;;9.53;;
20621;SDS011;10470;42.670;23.354;2022-08-21T00:16:54;12.83;;;8.60;;
20621;SDS011;10470;42.670;23.354;2022-08-21T00:19:19;12.97;;;8.40;;
20621;SDS011;10470;42.670;23.354;2022-08-21T00:21:46;15.67;;;8.83;;
20621;SDS011;10470;42.670;23.354;2022-08-21T00:24:11;15.30;;;9.20;;
20621;SDS011;10470;42.670;23.354;2022-08-21T00:26:37;14.97;;;8.40;;
20621;SDS011;10470;42.670;23.354;2022-08-21T00:29:03;13.27;;;7.53;;
20621;SDS011;10470;42.670;23.354;2022-08-21T00:31:28;13.63;;;7.97;;
20621;SDS011;10470;42.670;23.354;2022-08-21T00:33:54;9.23;;;7.20;;
20621;SDS011;10470;42.670;23.354;2022-08-21T00:36:20;13.90;;;7.07;;
20621;SDS011;10470;42.670;23.354;2022-08-21T00:38:45;13.53;;;7.50;;
20621;SDS011;10470;42.670;23.354;2022-08-21T00:41:11;12.57;;;7.57;;
20621;SDS011;10470;42.670;23.354;2022-08-21T00:43:37;12.20;;;7.30;;
20621;SDS011;10470;42.670;23.354;2022-08-21T00:46:04;13.87;;;8.10;;
20621;SDS011;10470;42.670;23.354;2022-08-21T00:48:30;16.47;;;8.07;;
20621;SDS011;10470;42.670;23.354;2022-08-21T00:51:07;13.93;;;8.13;;
20621;SDS011;10470;42.670;23.354;2022-08-21T00:53:37;14.50;;;8.90;;
20621;SDS011;10470;42.670;23.354;2022-08-21T00:56:05;17.60;;;9.27;;
20621;SDS011;10470;42.670;23.354;2022-08-21T00:58:34;15.07;;;8.10;;
20621;SDS011;10470;42.670;23.354;2022-08-21T01:01:03;13.33;;;8.47;;
20621;SDS011;10470;42.670;23.354;2022-08-21T01:03:31;14.33;;;8.00;;
20621;SDS011;10470;42.670;23.354;2022-08-21T01:05:57;19.10;;;9.77;;
20621;SDS011;10470;42.670;23.354;2022-08-21T01:08:22;19.07;;;10.20;;
20621;SDS011;10470;42.670;23.354;2022-08-21T01:10:49;22.57;;;10.47;;
20621;SDS011;10470;42.670;23.354;2022-08-21T01:13:15;23.37;;;11.73;;
20621;SDS011;10470;42.670;23.354;2022-08-21T01:15:44;20.90;;;11.37;;
20621;SDS011;10470;42.670;23.354;2022-08-21T01:18:13;21.07;;;11.50;;
20621;SDS011;10470;42.670;23.354;2022-08-21T01:20:42;18.40;;;11.07;;
20621;SDS011;10470;42.670;23.354;2022-08-21T01:23:11;24.93;;;11.83;;
20621;SDS011;10470;42.670;23.354;2022-08-21T01:25:37;18.70;;;10.63;;
20621;SDS011;10470;42.670;23.354;2022-08-21T01:28:11;21.23;;;11.70;;
20621;SDS011;10470;42.670;23.354;2022-08-21T01:30:39;23.27;;;11.63;;
20621;SDS011;10470;42.670;23.354;2022-08-21T01:33:07;24.00;;;11.50;;
20621;SDS011;10470;42.670;23.354;2022-08-21T01:35:33;23.43;;;11.83;;
20621;SDS011;10470;42.670;23.354;2022-08-21T01:37:58;21.40;;;11.77;;
20621;SDS011;10470;42.670;23.354;2022-08-21T01:40:24;21.83;;;11.60;;
20621;SDS011;10470;42.670;23.354;2022-08-21T01:42:49;23.30;;;12.17;;
20621;SDS011;10470;42.670;23.354;2022-08-21T01:45:15;23.13;;;11.77;;
20621;SDS011;10470;42.670;23.354;2022-08-21T01:47:44;25.60;;;12.10;;
20621;SDS011;10470;42.670;23.354;2022-08-21T01:50:11;23.47;;;12.37;;
20621;SDS011;10470;42.670;23.354;2022-08-21T01:52:38;23.97;;;12.30;;
20621;SDS011;10470;42.670;23.354;2022-08-21T01:55:05;22.33;;;12.33;;
20621;SDS011;10470;42.670;23.354;2022-08-21T01:57:32;21.07;;;10.83;;
20621;SDS011;10470;42.670;23.354;2022-08-21T01:59:58;22.70;;;12.23;;
20621;SDS011;10470;42.670;23.354;2022-08-21T02:02:24;20.57;;;10.80;;
20621;SDS011;10470;42.670;23.354;2022-08-21T02:04:49;22.77;;;11.90;;
20621;SDS011;10470;42.670;23.354;2022-08-21T02:07:15;19.27;;;9.90;;
20621;SDS011;10470;42.670;23.354;2022-08-21T02:09:40;19.20;;;10.37;;
20621;SDS011;10470;42.670;23.354;2022-08-21T02:12:07;19.97;;;10.90;;
20621;SDS011;10470;42.670;23.354;2022-08-21T02:14:33;20.13;;;10.53;;
20621;SDS011;10470;42.670;23.354;2022-08-21T02:16:58;19.30;;;9.80;;
20621;SDS011;10470;42.670;23.354;2022-08-21T02:19:24;17.90;;;10.13;;
20621;SDS011;10470;42.670;23.354;2022-08-21T02:21:50;18.40;;;10.50;;
20621;SDS011;10470;42.670;23.354;2022-08-21T02:24:15;20.27;;;11.23;;
20621;SDS011;10470;42.670;23.354;2022-08-21T02:26:41;19.67;;;10.27;;
20621;SDS011;10470;42.670;23.354;2022-08-21T02:29:07;23.40;;;12.37;;
20621;SDS011;10470;42.670;23.354;2022-08-21T02:31:33;20.93;;;11.83;;
20621;SDS011;10470;42.670;23.354;2022-08-21T02:33:58;22.47;;;12.50;;
20621;SDS011;10470;42.670;23.354;2022-08-21T02:36:24;27.07;;;14.33;;
20621;SDS011;10470;42.670;23.354;2022-08-21T02:38:50;28.30;;;14.13;;
20621;SDS011;10470;42.670;23.354;2022-08-21T02:41:17;26.77;;;13.57;;
20621;SDS011;10470;42.670;23.354;2022-08-21T02:43:43;31.27;;;14.07;;
20621;SDS011;10470;42.670;23.354;2022-08-21T02:46:10;29.10;;;13.83;;
20621;SDS011;10470;42.670;23.354;2022-08-21T02:48:37;25.93;;;13.03;;
20621;SDS011;10470;42.670;23.354;2022-08-21T02:51:04;21.47;;;11.63;;
20621;SDS011;10470;42.670;23.354;2022-08-21T02:53:33;23.80;;;12.40;;
20621;SDS011;10470;42.670;23.354;2022-08-21T02:56:00;23.53;;;11.70;;
20621;SDS011;10470;42.670;23.354;2022-08-21T02:58:29;17.40;;;10.13;;
20621;SDS011;10470;42.670;23.354;2022-08-21T03:00:57;18.43;;;10.63;;
20621;SDS011;10470;42.670;23.354;2022-08-21T03:03:23;24.67;;;12.53;;
20621;SDS011;10470;42.670;23.354;2022-08-21T03:05:50;22.53;;;11.63;;
20621;SDS011;10470;42.670;23.354;2022-08-21T03:08:17;19.53;;;10.97;;
20621;SDS011;10470;42.670;23.354;2022-08-21T03:10:45;22.83;;;11.53;;
20621;SDS011;10470;42.670;23.354;2022-08-21T03:13:13;21.93;;;11.20;;
20621;SDS011;10470;42.670;23.354;2022-08-21T03:15:40;19.77;;;10.63;;
20621;SDS011;10470;42.670;23.354;2022-08-21T03:18:07;15.63;;;9.43;;
20621;SDS011;10470;42.670;23.354;2022-08-21T03:20:34;18.97;;;10.03;;
20621;SDS011;10470;42.670;23.354;2022-08-21T03:23:01;17.33;;;9.63;;
20621;SDS011;10470;42.670;23.354;2022-08-21T03:25:28;17.00;;;9.63;;
20621;SDS011;10470;42.670;23.354;2022-08-21T03:27:56;19.63;;;9.50;;
20621;SDS011;10470;42.670;23.354;2022-08-21T03:30:22;15.80;;;8.30;;
20621;SDS011;10470;42.670;23.354;2022-08-21T03:32:48;18.20;;;9.50;;
20621;SDS011;10470;42.670;23.354;2022-08-21T03:35:13;13.90;;;8.77;;
20621;SDS011;10470;42.670;23.354;2022-08-21T03:37:39;15.93;;;9.57;;
20621;SDS011;10470;42.670;23.354;2022-08-21T03:40:06;13.33;;;7.43;;
20621;SDS011;10470;42.670;23.354;2022-08-21T03:42:33;14.13;;;7.80;;
20621;SDS011;10470;42.670;23.354;2022-08-21T03:44:59;10.73;;;6.40;;
20621;SDS011;10470;42.670;23.354;2022-08-21T03:47:24;9.43;;;5.83;;
20621;SDS011;10470;42.670;23.354;2022-08-21T03:49:50;7.87;;;5.10;;
20621;SDS011;10470;42.670;23.354;2022-08-21T03:52:15;7.37;;;4.67;;
20621;SDS011;10470;42.670;23.354;2022-08-21T03:54:42;7.77;;;4.70;;
20621;SDS011;10470;42.670;23.354;2022-08-21T03:57:08;9.87;;;4.80;;
20621;SDS011;10470;42.670;23.354;2022-08-21T03:59:34;9.47;;;5.30;;
20621;SDS011;10470;42.670;23.354;2022-08-21T04:02:00;9.20;;;5.63;;
20621;SDS011;10470;42.670;23.354;2022-08-21T04:04:28;11.10;;;5.37;;
20621;SDS011;10470;42.670;23.354;2022-08-21T04:06:54;10.50;;;6.30;;
20621;SDS011;10470;42.670;23.354;2022-08-21T04:09:21;12.03;;;6.47;;
20621;SDS011;10470;42.670;23.354;2022-08-21T04:11:46;10.40;;;6.50;;
20621;SDS011;10470;42.670;23.354;2022-08-21T04:14:13;8.57;;;6.40;;
20621;SDS011;10470;42.670;23.354;2022-08-21T04:16:39;12.50;;;6.63;;
20621;SDS011;10470;42.670;23.354;2022-08-21T04:19:06;9.77;;;6.93;;
20621;SDS011;10470;42.670;23.354;2022-08-21T04:21:32;9.97;;;6.03;;
20621;SDS011;10470;42.670;23.354;2022-08-21T04:23:58;10.63;;;6.60;;
20621;SDS011;10470;42.670;23.354;2022-08-21T04:26:24;10.43;;;6.97;;
20621;SDS011;10470;42.670;23.354;2022-08-21T04:28:50;10.80;;;6.50;;
20621;SDS011;10470;42.670;23.354;2022-08-21T04:31:17;11.90;;;7.00;;
20621;SDS011;10470;42.670;23.354;2022-08-21T04:33:43;10.67;;;6.50;;
20621;SDS011;10470;42.670;23.354;2022-08-21T04:36:09;10.73;;;6.50;;
20621;SDS011;10470;42.670;23.354;2022-08-21T04:38:36;10.40;;;6.90;;
20621;SDS011;10470;42.670;23.354;2022-08-21T04:41:01;11.33;;;6.60;;
20621;SDS011;10470;42.670;23.354;2022-08-21T04:43:27;14.03;;;6.90;;
20621;SDS011;10470;42.670;23.354;2022-08-21T04:45:53;11.07;;;7.20;;
20621;SDS011;10470;42.670;23.354;2022-08-21T04:48:20;10.17;;;6.50;;
20621;SDS011;10470;42.670;23.354;2022-08-21T04:53:22;8.53;;;6.10;;
20621;SDS011;10470;42.670;23.354;2022-08-21T04:55:51;9.73;;;6.50;;
20621;SDS011;10470;42.670;23.354;2022-08-21T04:58:21;12.83;;;7.50;;
20621;SDS011;10470;42.670;23.354;2022-08-21T05:00:52;11.23;;;6.90;;
20621;SDS011;10470;42.670;23.354;2022-08-21T05:03:20;11.03;;;6.43;;
20621;SDS011;10470;42.670;23.354;2022-08-21T05:05:47;11.47;;;7.10;;
20621;SDS011;10470;42.670;23.354;2022-08-21T05:08:14;17.67;;;7.70;;
20621;SDS011;10470;42.670;23.354;2022-08-21T05:10:43;11.80;;;7.37;;
20621;SDS011;10470;42.670;23.354;2022-08-21T05:13:10;10.93;;;6.80;;
20621;SDS011;10470;42.670;23.354;2022-08-21T05:15:40;10.97;;;7.03;;
20621;SDS011;10470;42.670;23.354;2022-08-21T05:18:05;9.97;;;6.57;;
20621;SDS011;10470;42.670;23.354;2022-08-21T05:20:31;15.67;;;6.80;;
20621;SDS011;10470;42.670;23.354;2022-08-21T05:22:59;11.37;;;7.13;;
20621;SDS011;10470;42.670;23.354;2022-08-21T05:25:25;11.40;;;7.13;;
20621;SDS011;10470;42.670;23.354;2022-08-21T05:27:50;13.03;;;6.60;;
20621;SDS011;10470;42.670;23.354;2022-08-21T05:30:16;13.33;;;8.10;;
20621;SDS011;10470;42.670;23.354;2022-08-21T05:32:41;10.90;;;6.83;;
20621;SDS011;10470;42.670;23.354;2022-08-21T05:35:07;10.23;;;6.97;;
20621;SDS011;10470;42.670;23.354;2022-08-21T05:37:33;8.03;;;4.87;;
20621;SDS011;10470;42.670;23.354;2022-08-21T05:40:00;8.03;;;4.97;;
20621;SDS011;10470;42.670;23.354;2022-08-21T05:42:27;8.60;;;5.13;;
20621;SDS011;10470;42.670;23.354;2022-08-21T05:44:53;6.50;;;5.43;;
20621;SDS011;10470;42.670;23.354;2022-08-21T05:47:18;8.83;;;6.40;;
20621;SDS011;10470;42.670;23.354;2022-08-21T05:49:44;11.70;;;6.73;;
20621;SDS011;10470;42.670;23.354;2022-08-21T05:52:09;15.33;;;9.87;;
20621;SDS011;10470;42.670;23.354;2022-08-21T05:54:36;10.57;;;7.00;;
20621;SDS011;10470;42.670;23.354;2022-08-21T05:57:02;9.57;;;6.97;;
20621;SDS011;10470;42.670;23.354;2022-08-21T05:59:28;10.87;;;7.07;;
20621;SDS011;10470;42.670;23.354;2022-08-21T06:01:53;10.93;;;7.13;;
20621;SDS011;10470;42.670;23.354;2022-08-21T06:04:19;12.63;;;7.67;;
20621;SDS011;10470;42.670;23.354;2022-08-21T06:06:44;10.17;;;7.13;;
20621;SDS011;10470;42.670;23.354;2022-08-21T06:09:10;13.10;;;7.60;;
20621;SDS011;10470;42.670;23.354;2022-08-21T06:11:35;13.23;;;7.47;;
20621;SDS011;10470;42.670;23.354;2022-08-21T06:14:01;16.23;;;10.07;;
20621;SDS011;10470;42.670;23.354;2022-08-21T06:16:27;17.00;;;11.57;;
20621;SDS011;10470;42.670;23.354;2022-08-21T06:18:52;15.60;;;9.00;;
20621;SDS011;10470;42.670;23.354;2022-08-21T06:21:18;13.77;;;8.53;;
20621;SDS011;10470;42.670;23.354;2022-08-21T06:23:44;11.43;;;8.00;;
20621;SDS011;10470;42.670;23.354;2022-08-21T06:26:10;14.20;;;8.73;;
20621;SDS011;10470;42.670;23.354;2022-08-21T06:28:37;16.13;;;8.43;;
20621;SDS011;10470;42.670;23.354;2022-08-21T06:31:13;15.00;;;8.77;;
20621;SDS011;10470;42.670;23.354;2022-08-21T06:33:41;12.97;;;8.57;;
20621;SDS011;10470;42.670;23.354;2022-08-21T06:36:07;11.87;;;7.87;;
20621;SDS011;10470;42.670;23.354;2022-08-21T06:38:32;11.60;;;8.00;;
20621;SDS011;10470;42.670;23.354;2022-08-21T06:40:58;11.43;;;7.73;;
20621;SDS011;10470;42.670;23.354;2022-08-21T06:43:24;13.53;;;7.77;;
20621;SDS011;10470;42.670;23.354;2022-08-21T06:45:49;14.20;;;7.70;;
20621;SDS011;10470;42.670;23.354;2022-08-21T06:48:15;12.17;;;8.30;;
20621;SDS011;10470;42.670;23.354;2022-08-21T06:50:40;10.30;;;6.93;;
20621;SDS011;10470;42.670;23.354;2022-08-21T06:53:08;9.87;;;6.70;;
20621;SDS011;10470;42.670;23.354;2022-08-21T06:55:35;11.47;;;8.60;;
20621;SDS011;10470;42.670;23.354;2022-08-21T06:58:03;12.57;;;7.67;;
20621;SDS011;10470;42.670;23.354;2022-08-21T07:00:29;13.77;;;7.93;;
20621;SDS011;10470;42.670;23.354;2022-08-21T07:02:55;9.63;;;7.40;;
20621;SDS011;10470;42.670;23.354;2022-08-21T07:05:22;10.53;;;6.87;;
20621;SDS011;10470;42.670;23.354;2022-08-21T07:07:50;11.23;;;6.67;;
20621;SDS011;10470;42.670;23.354;2022-08-21T07:10:16;12.60;;;6.37;;
20621;SDS011;10470;42.670;23.354;2022-08-21T07:12:44;12.83;;;6.90;;
20621;SDS011;10470;42.670;23.354;2022-08-21T07:15:10;10.17;;;6.43;;
20621;SDS011;10470;42.670;23.354;2022-08-21T07:17:36;9.83;;;6.17;;
20621;SDS011;10470;42.670;23.354;2022-08-21T07:20:01;9.93;;;7.13;;
20621;SDS011;10470;42.670;23.354;2022-08-21T07:22:28;7.83;;;5.97;;
20621;SDS011;10470;42.670;23.354;2022-08-21T07:24:54;9.67;;;6.23;;
20621;SDS011;10470;42.670;23.354;2022-08-21T07:27:20;11.80;;;6.30;;
20621;SDS011;10470;42.670;23.354;2022-08-21T07:29:45;12.70;;;6.60;;
20621;SDS011;10470;42.670;23.354;2022-08-21T07:32:11;7.00;;;5.23;;
20621;SDS011;10470;42.670;23.354;2022-08-21T07:34:36;9.00;;;5.30;;
20621;SDS011;10470;42.670;23.354;2022-08-21T07:37:02;11.63;;;5.67;;
20621;SDS011;10470;42.670;23.354;2022-08-21T07:39:27;11.10;;;6.13;;
20621;SDS011;10470;42.670;23.354;2022-08-21T07:41:53;11.03;;;6.30;;
20621;SDS011;10470;42.670;23.354;2022-08-21T07:44:18;12.10;;;6.20;;
20621;SDS011;10470;42.670;23.354;2022-08-21T07:46:44;10.30;;;5.20;;
20621;SDS011;10470;42.670;23.354;2022-08-21T07:49:09;8.03;;;5.20;;
20621;SDS011;10470;42.670;23.354;2022-08-21T07:51:34;11.40;;;5.50;;
20621;SDS011;10470;42.670;23.354;2022-08-21T07:54:00;9.13;;;5.37;;
20621;SDS011;10470;42.670;23.354;2022-08-21T07:56:26;12.27;;;7.30;;
20621;SDS011;10470;42.670;23.354;2022-08-21T07:58:53;12.47;;;6.90;;
20621;SDS011;10470;42.670;23.354;2022-08-21T08:01:19;9.73;;;5.60;;
20621;SDS011;10470;42.670;23.354;2022-08-21T08:03:44;10.17;;;7.17;;
20621;SDS011;10470;42.670;23.354;2022-08-21T08:06:10;13.23;;;7.50;;
20621;SDS011;10470;42.670;23.354;2022-08-21T08:08:42;12.83;;;7.33;;
20621;SDS011;10470;42.670;23.354;2022-08-21T08:11:08;10.27;;;8.03;;
20621;SDS011;10470;42.670;23.354;2022-08-21T08:13:47;12.10;;;9.13;;
20621;SDS011;10470;42.670;23.354;2022-08-21T08:16:15;13.03;;;8.70;;
20621;SDS011;10470;42.670;23.354;2022-08-21T08:18:41;12.97;;;9.07;;
20621;SDS011;10470;42.670;23.354;2022-08-21T08:21:08;13.53;;;8.90;;
20621;SDS011;10470;42.670;23.354;2022-08-21T08:23:34;12.43;;;8.93;;
20621;SDS011;10470;42.670;23.354;2022-08-21T08:26:00;11.73;;;8.67;;
20621;SDS011;10470;42.670;23.354;2022-08-21T08:28:28;12.67;;;8.90;;
20621;SDS011;10470;42.670;23.354;2022-08-21T08:30:54;13.87;;;9.13;;
20621;SDS011;10470;42.670;23.354;2022-08-21T08:33:20;13.83;;;8.03;;
20621;SDS011;10470;42.670;23.354;2022-08-21T08:35:46;11.50;;;8.10;;
20621;SDS011;10470;42.670;23.354;2022-08-21T08:38:14;8.47;;;7.20;;
20621;SDS011;10470;42.670;23.354;2022-08-21T08:43:25;11.13;;;7.57;;
20621;SDS011;10470;42.670;23.354;2022-08-21T08:45:53;11.77;;;7.10;;
20621;SDS011;10470;42.670;23.354;2022-08-21T08:48:38;10.63;;;6.70;;
20621;SDS011;10470;42.670;23.354;2022-08-21T08:51:22;12.03;;;6.60;;
20621;SDS011;10470;42.670;23.354;2022-08-21T08:53:58;10.00;;;6.33;;
20621;SDS011;10470;42.670;23.354;2022-08-21T08:56:28;9.67;;;5.70;;
20621;SDS011;10470;42.670;23.354;2022-08-21T08:58:57;13.50;;;7.80;;
20621;SDS011;10470;42.670;23.354;2022-08-21T09:01:26;11.33;;;7.90;;
20621;SDS011;10470;42.670;23.354;2022-08-21T09:03:52;13.47;;;7.50;;
20621;SDS011;10470;42.670;23.354;2022-08-21T09:12:59;10.83;;;7.87;;
20621;SDS011;10470;42.670;23.354;2022-08-21T09:18:14;10.87;;;7.37;;
20621;SDS011;10470;42.670;23.354;2022-08-21T09:28:35;8.93;;;6.53;;
20621;SDS011;10470;42.670;23.354;2022-08-21T09:31:24;9.97;;;5.67;;
20621;SDS011;10470;42.670;23.354;2022-08-21T09:33:47;9.30;;;6.20;;
20621;SDS011;10470;42.670;23.354;2022-08-21T09:36:12;11.87;;;6.47;;
20621;SDS011;10470;42.670;23.354;2022-08-21T09:38:52;10.47;;;6.03;;
20621;SDS011;10470;42.670;23.354;2022-08-21T09:41:25;10.07;;;6.10;;
20621;SDS011;10470;42.670;23.354;2022-08-21T09:43:56;9.73;;;6.07;;
20621;SDS011;10470;42.670;23.354;2022-08-21T09:46:23;11.20;;;5.70;;
20621;SDS011;10470;42.670;23.354;2022-08-21T09:48:51;11.00;;;6.63;;
20621;SDS011;10470;42.670;23.354;2022-08-21T09:51:20;8.73;;;5.63;;
20621;SDS011;10470;42.670;23.354;2022-08-21T09:53:49;8.60;;;5.87;;
20621;SDS011;10470;42.670;23.354;2022-08-21T09:56:33;10.47;;;6.20;;
20621;SDS011;10470;42.670;23.354;2022-08-21T10:01:57;6.77;;;5.60;;
20621;SDS011;10470;42.670;23.354;2022-08-21T10:04:34;9.20;;;6.97;;
20621;SDS011;10470;42.670;23.354;2022-08-21T10:07:06;9.83;;;6.03;;
20621;SDS011;10470;42.670;23.354;2022-08-21T10:09:36;8.83;;;5.33;;
20621;SDS011;10470;42.670;23.354;2022-08-21T10:23:18;7.47;;;5.00;;
20621;SDS011;10470;42.670;23.354;2022-08-21T10:26:00;7.50;;;5.73;;
20621;SDS011;10470;42.670;23.354;2022-08-21T10:28:37;7.50;;;5.30;;
20621;SDS011;10470;42.670;23.354;2022-08-21T10:33:41;7.20;;;5.30;;
20621;SDS011;10470;42.670;23.354;2022-08-21T10:36:21;6.20;;;4.70;;
20621;SDS011;10470;42.670;23.354;2022-08-21T10:47:24;8.20;;;5.70;;
20621;SDS011;10470;42.670;23.354;2022-08-21T10:58:09;6.57;;;4.50;;
20621;SDS011;10470;42.670;23.354;2022-08-21T11:03:11;9.67;;;5.20;;
20621;SDS011;10470;42.670;23.354;2022-08-21T11:05:46;7.40;;;4.50;;
20621;SDS011;10470;42.670;23.354;2022-08-21T11:08:17;7.50;;;4.33;;
20621;SDS011;10470;42.670;23.354;2022-08-21T11:11:03;6.47;;;4.40;;
20621;SDS011;10470;42.670;23.354;2022-08-21T11:13:49;5.30;;;4.07;;
20621;SDS011;10470;42.670;23.354;2022-08-21T11:16:30;5.53;;;4.20;;
20621;SDS011;10470;42.670;23.354;2022-08-21T11:25:03;5.20;;;4.30;;
20621;SDS011;10470;42.670;23.354;2022-08-21T11:30:11;5.17;;;3.90;;
20621;SDS011;10470;42.670;23.354;2022-08-21T11:51:32;4.13;;;3.73;;
20621;SDS011;10470;42.670;23.354;2022-08-21T11:54:06;6.93;;;4.20;;
20621;SDS011;10470;42.670;23.354;2022-08-21T11:56:44;6.77;;;4.20;;
20621;SDS011;10470;42.670;23.354;2022-08-21T11:59:14;6.83;;;4.53;;
20621;SDS011;10470;42.670;23.354;2022-08-21T12:01:46;6.80;;;4.17;;
20621;SDS011;10470;42.670;23.354;2022-08-21T12:06:56;5.33;;;3.83;;
20621;SDS011;10470;42.670;23.354;2022-08-21T12:09:37;6.93;;;4.40;;
20621;SDS011;10470;42.670;23.354;2022-08-21T12:12:10;8.40;;;3.90;;
20621;SDS011;10470;42.670;23.354;2022-08-21T12:17:56;6.53;;;4.13;;
20621;SDS011;10470;42.670;23.354;2022-08-21T12:20:25;6.23;;;4.53;;
20621;SDS011;10470;42.670;23.354;2022-08-21T12:23:43;7.73;;;4.80;;
20621;SDS011;10470;42.670;23.354;2022-08-21T12:25:46;6.00;;;4.60;;
20621;SDS011;10470;42.670;23.354;2022-08-21T12:28:26;7.13;;;4.87;;
20621;SDS011;10470;42.670;23.354;2022-08-21T12:30:52;9.60;;;5.27;;
20621;SDS011;10470;42.670;23.354;2022-08-21T12:33:20;5.60;;;4.70;;
20621;SDS011;10470;42.670;23.354;2022-08-21T12:35:50;7.97;;;4.67;;
20621;SDS011;10470;42.670;23.354;2022-08-21T12:38:20;5.10;;;4.57;;
20621;SDS011;10470;42.670;23.354;2022-08-21T12:43:38;8.20;;;4.87;;
20621;SDS011;10470;42.670;23.354;2022-08-21T12:46:16;5.67;;;4.50;;
20621;SDS011;10470;42.670;23.354;2022-08-21T12:49:12;7.50;;;5.13;;
20621;SDS011;10470;42.670;23.354;2022-08-21T12:54:45;7.00;;;4.63;;
20621;SDS011;10470;42.670;23.354;2022-08-21T13:00:07;5.00;;;4.20;;
20621;SDS011;10470;42.670;23.354;2022-08-21T13:02:38;5.77;;;4.47;;
20621;SDS011;10470;42.670;23.354;2022-08-21T13:05:16;6.50;;;3.90;;
20621;SDS011;10470;42.670;23.354;2022-08-21T13:07:48;4.47;;;4.07;;
20621;SDS011;10470;42.670;23.354;2022-08-21T13:10:28;7.03;;;3.67;;
20621;SDS011;10470;42.670;23.354;2022-08-21T13:12:57;6.40;;;4.03;;
20621;SDS011;10470;42.670;23.354;2022-08-21T13:15:34;7.30;;;4.47;;
20621;SDS011;10470;42.670;23.354;2022-08-21T13:18:03;5.77;;;4.23;;
20621;SDS011;10470;42.670;23.354;2022-08-21T13:20:37;6.67;;;4.13;;
20621;SDS011;10470;42.670;23.354;2022-08-21T13:23:28;9.67;;;5.40;;
20621;SDS011;10470;42.670;23.354;2022-08-21T13:25:54;4.40;;;3.80;;
20621;SDS011;10470;42.670;23.354;2022-08-21T13:28:21;4.43;;;4.03;;
20621;SDS011;10470;42.670;23.354;2022-08-21T13:30:48;5.93;;;3.60;;
20621;SDS011;10470;42.670;23.354;2022-08-21T13:33:17;5.30;;;4.23;;
20621;SDS011;10470;42.670;23.354;2022-08-21T13:38:27;5.50;;;4.17;;
20621;SDS011;10470;42.670;23.354;2022-08-21T13:40:56;7.73;;;3.90;;
20621;SDS011;10470;42.670;23.354;2022-08-21T13:43:28;5.57;;;3.97;;
20621;SDS011;10470;42.670;23.354;2022-08-21T13:45:56;6.97;;;4.03;;
20621;SDS011;10470;42.670;23.354;2022-08-21T13:48:24;11.50;;;8.73;;
20621;SDS011;10470;42.670;23.354;2022-08-21T13:50:52;8.77;;;4.30;;
20621;SDS011;10470;42.670;23.354;2022-08-21T13:53:27;6.13;;;4.33;;
20621;SDS011;10470;42.670;23.354;2022-08-21T13:55:53;5.00;;;3.90;;
20621;SDS011;10470;42.670;23.354;2022-08-21T13:58:52;5.07;;;3.80;;
20621;SDS011;10470;42.670;23.354;2022-08-21T14:01:23;4.47;;;4.00;;
20621;SDS011;10470;42.670;23.354;2022-08-21T14:03:52;7.30;;;4.63;;
20621;SDS011;10470;42.670;23.354;2022-08-21T14:06:24;8.07;;;4.50;;
20621;SDS011;10470;42.670;23.354;2022-08-21T14:08:56;4.60;;;4.20;;
20621;SDS011;10470;42.670;23.354;2022-08-21T14:11:25;5.70;;;4.27;;
20621;SDS011;10470;42.670;23.354;2022-08-21T14:16:24;6.63;;;4.70;;
20621;SDS011;10470;42.670;23.354;2022-08-21T14:24:45;8.23;;;4.20;;
20621;SDS011;10470;42.670;23.354;2022-08-21T14:26:49;5.87;;;4.30;;
20621;SDS011;10470;42.670;23.354;2022-08-21T14:29:19;6.77;;;4.20;;
20621;SDS011;10470;42.670;23.354;2022-08-21T14:32:35;6.17;;;4.23;;
20621;SDS011;10470;42.670;23.354;2022-08-21T14:34:45;6.83;;;4.60;;
20621;SDS011;10470;42.670;23.354;2022-08-21T14:37:11;5.80;;;4.23;;
20621;SDS011;10470;42.670;23.354;2022-08-21T14:39:36;6.53;;;4.40;;
20621;SDS011;10470;42.670;23.354;2022-08-21T14:42:02;5.93;;;4.63;;
20621;SDS011;10470;42.670;23.354;2022-08-21T14:44:28;5.97;;;4.77;;
20621;SDS011;10470;42.670;23.354;2022-08-21T14:46:53;6.47;;;4.77;;
20621;SDS011;10470;42.670;23.354;2022-08-21T14:49:20;6.77;;;4.60;;
20621;SDS011;10470;42.670;23.354;2022-08-21T14:51:45;7.17;;;4.50;;
20621;SDS011;10470;42.670;23.354;2022-08-21T14:54:11;8.83;;;5.83;;
20621;SDS011;10470;42.670;23.354;2022-08-21T14:56:36;9.70;;;5.70;;
20621;SDS011;10470;42.670;23.354;2022-08-21T14:59:04;5.53;;;4.97;;
20621;SDS011;10470;42.670;23.354;2022-08-21T15:01:33;7.07;;;4.40;;
20621;SDS011;10470;42.670;23.354;2022-08-21T15:04:01;5.30;;;4.50;;
20621;SDS011;10470;42.670;23.354;2022-08-21T15:06:26;6.67;;;4.80;;
20621;SDS011;10470;42.670;23.354;2022-08-21T15:08:52;9.00;;;5.10;;
20621;SDS011;10470;42.670;23.354;2022-08-21T15:11:19;5.33;;;4.80;;
20621;SDS011;10470;42.670;23.354;2022-08-21T15:13:46;6.60;;;4.90;;
20621;SDS011;10470;42.670;23.354;2022-08-21T15:16:15;9.40;;;4.93;;
20621;SDS011;10470;42.670;23.354;2022-08-21T15:18:40;7.37;;;4.47;;
20621;SDS011;10470;42.670;23.354;2022-08-21T15:21:07;5.27;;;4.47;;
20621;SDS011;10470;42.670;23.354;2022-08-21T15:23:33;10.97;;;4.90;;
20621;SDS011;10470;42.670;23.354;2022-08-21T15:25:58;6.67;;;4.50;;
20621;SDS011;10470;42.670;23.354;2022-08-21T15:28:24;6.13;;;4.53;;
20621;SDS011;10470;42.670;23.354;2022-08-21T15:30:50;6.53;;;5.10;;
20621;SDS011;10470;42.670;23.354;2022-08-21T15:33:16;6.27;;;4.67;;
20621;SDS011;10470;42.670;23.354;2022-08-21T15:35:42;8.30;;;4.73;;
20621;SDS011;10470;42.670;23.354;2022-08-21T15:38:07;6.93;;;4.57;;
20621;SDS011;10470;42.670;23.354;2022-08-21T15:40:34;8.40;;;6.03;;
20621;SDS011;10470;42.670;23.354;2022-08-21T15:43:01;8.27;;;5.40;;
20621;SDS011;10470;42.670;23.354;2022-08-21T15:45:28;6.43;;;4.70;;
20621;SDS011;10470;42.670;23.354;2022-08-21T15:47:54;7.17;;;4.83;;
20621;SDS011;10470;42.670;23.354;2022-08-21T15:50:21;7.53;;;4.80;;
20621;SDS011;10470;42.670;23.354;2022-08-21T15:52:48;5.27;;;4.60;;
20621;SDS011;10470;42.670;23.354;2022-08-21T15:55:13;5.87;;;4.47;;
20621;SDS011;10470;42.670;23.354;2022-08-21T15:57:43;5.40;;;4.87;;
20621;SDS011;10470;42.670;23.354;2022-08-21T16:00:12;7.30;;;4.93;;
20621;SDS011;10470;42.670;23.354;2022-08-21T16:02:45;5.20;;;4.60;;
20621;SDS011;10470;42.670;23.354;2022-08-21T16:05:13;7.03;;;5.17;;
20621;SDS011;10470;42.670;23.354;2022-08-21T16:07:41;8.13;;;4.80;;
20621;SDS011;10470;42.670;23.354;2022-08-21T16:10:08;6.30;;;4.60;;
20621;SDS011;10470;42.670;23.354;2022-08-21T16:12:36;9.57;;;5.03;;
20621;SDS011;10470;42.670;23.354;2022-08-21T16:15:06;9.13;;;4.80;;
20621;SDS011;10470;42.670;23.354;2022-08-21T16:17:33;7.70;;;4.80;;
20621;SDS011;10470;42.670;23.354;2022-08-21T16:20:01;6.70;;;4.93;;
20621;SDS011;10470;42.670;23.354;2022-08-21T16:22:29;6.73;;;4.97;;
20621;SDS011;10470;42.670;23.354;2022-08-21T16:24:55;8.70;;;5.13;;